sensor_id;sensor_type;location;lat;lon;timestamp;P1;durP1;ratioP1;P2;durP2;ratioP2
82248;SDS011;71851;49.092;18.918;2023-08-20T00:02:26;11.35;;;9.75;;
82248;SDS011;71851;49.092;18.918;2023-08-20T00:05:31;11.20;;;9.73;;
82248;SDS011;71851;49.092;18.918;2023-08-20T00:08:32;11.27;;;10.02;;
82248;SDS011;71851;49.092;18.918;2023-08-20T00:11:32;14.50;;;10.43;;
82248;SDS011;71851;49.092;18.918;2023-08-20T00:14:52;13.15;;;9.80;;
82248;SDS011;71851;49.092;18.918;2023-08-20T00:17:54;13.75;;;9.35;;
82248;SDS011;71851;49.092;18.918;2023-08-20T00:20:58;10.88;;;9.82;;
82248;SDS011;71851;49.092;18.918;2023-08-20T00:23:59;11.00;;;9.48;;
82248;SDS011;71851;49.092;18.918;2023-08-20T00:27:00;11.30;;;10.18;;
82248;SDS011;71851;49.092;18.918;2023-08-20T00:30:01;11.93;;;9.77;;
82248;SDS011;71851;49.092;18.918;2023-08-20T00:33:01;12.00;;;10.75;;
82248;SDS011;71851;49.092;18.918;2023-08-20T00:36:02;11.48;;;10.27;;
82248;SDS011;71851;49.092;18.918;2023-08-20T00:39:02;11.20;;;10.02;;
82248;SDS011;71851;49.092;18.918;2023-08-20T00:42:03;10.65;;;9.55;;
82248;SDS011;71851;49.092;18.918;2023-08-20T00:45:04;12.55;;;10.77;;
82248;SDS011;71851;49.092;18.918;2023-08-20T00:48:05;11.70;;;10.50;;
82248;SDS011;71851;49.092;18.918;2023-08-20T00:51:06;12.48;;;10.18;;
82248;SDS011;71851;49.092;18.918;2023-08-20T00:54:07;15.55;;;10.63;;
82248;SDS011;71851;49.092;18.918;2023-08-20T00:57:07;11.20;;;10.15;;
82248;SDS011;71851;49.092;18.918;2023-08-20T01:00:08;13.48;;;10.88;;
82248;SDS011;71851;49.092;18.918;2023-08-20T01:03:10;11.40;;;10.20;;
82248;SDS011;71851;49.092;18.918;2023-08-20T01:06:28;10.88;;;9.77;;
82248;SDS011;71851;49.092;18.918;2023-08-20T01:10:04;11.20;;;10.10;;
82248;SDS011;71851;49.092;18.918;2023-08-20T01:13:07;14.20;;;9.68;;
82248;SDS011;71851;49.092;18.918;2023-08-20T01:16:08;10.95;;;9.85;;
82248;SDS011;71851;49.092;18.918;2023-08-20T01:19:10;13.80;;;11.35;;
82248;SDS011;71851;49.092;18.918;2023-08-20T01:29:15;13.15;;;10.35;;
82248;SDS011;71851;49.092;18.918;2023-08-20T01:32:16;11.55;;;10.40;;
82248;SDS011;71851;49.092;18.918;2023-08-20T01:38:19;15.73;;;10.25;;
82248;SDS011;71851;49.092;18.918;2023-08-20T01:41:20;11.50;;;10.30;;
82248;SDS011;71851;49.092;18.918;2023-08-20T01:44:20;11.20;;;10.00;;
82248;SDS011;71851;49.092;18.918;2023-08-20T01:47:21;10.98;;;9.82;;
82248;SDS011;71851;49.092;18.918;2023-08-20T01:50:21;12.93;;;10.40;;
82248;SDS011;71851;49.092;18.918;2023-08-20T01:53:22;12.32;;;11.02;;
82248;SDS011;71851;49.092;18.918;2023-08-20T01:56:22;10.77;;;9.68;;
82248;SDS011;71851;49.092;18.918;2023-08-20T01:59:23;12.35;;;10.00;;
82248;SDS011;71851;49.092;18.918;2023-08-20T02:02:24;12.02;;;9.43;;
82248;SDS011;71851;49.092;18.918;2023-08-20T02:05:25;11.23;;;9.77;;
82248;SDS011;71851;49.092;18.918;2023-08-20T02:08:25;10.73;;;9.68;;
82248;SDS011;71851;49.092;18.918;2023-08-20T02:11:26;11.23;;;10.05;;
82248;SDS011;71851;49.092;18.918;2023-08-20T02:14:26;11.82;;;10.63;;
82248;SDS011;71851;49.092;18.918;2023-08-20T02:17:28;11.40;;;10.30;;
82248;SDS011;71851;49.092;18.918;2023-08-20T02:20:29;12.70;;;11.07;;
82248;SDS011;71851;49.092;18.918;2023-08-20T02:23:29;12.13;;;10.77;;
82248;SDS011;71851;49.092;18.918;2023-08-20T02:26:30;14.20;;;10.25;;
82248;SDS011;71851;49.092;18.918;2023-08-20T02:29:30;12.93;;;9.50;;
82248;SDS011;71851;49.092;18.918;2023-08-20T02:32:31;11.20;;;9.43;;
82248;SDS011;71851;49.092;18.918;2023-08-20T02:35:33;11.68;;;10.48;;
82248;SDS011;71851;49.092;18.918;2023-08-20T02:38:33;11.05;;;9.95;;
82248;SDS011;71851;49.092;18.918;2023-08-20T02:41:34;10.93;;;9.82;;
82248;SDS011;71851;49.092;18.918;2023-08-20T02:44:36;10.73;;;9.63;;
82248;SDS011;71851;49.092;18.918;2023-08-20T02:47:37;11.10;;;10.00;;
82248;SDS011;71851;49.092;18.918;2023-08-20T02:50:38;11.95;;;10.77;;
82248;SDS011;71851;49.092;18.918;2023-08-20T02:53:38;14.00;;;10.73;;
82248;SDS011;71851;49.092;18.918;2023-08-20T02:56:39;12.60;;;10.50;;
82248;SDS011;71851;49.092;18.918;2023-08-20T02:59:39;11.43;;;10.30;;
82248;SDS011;71851;49.092;18.918;2023-08-20T03:02:40;13.00;;;11.20;;
82248;SDS011;71851;49.092;18.918;2023-08-20T03:05:42;13.05;;;10.82;;
82248;SDS011;71851;49.092;18.918;2023-08-20T03:08:43;13.25;;;11.05;;
82248;SDS011;71851;49.092;18.918;2023-08-20T03:11:43;13.75;;;11.35;;
82248;SDS011;71851;49.092;18.918;2023-08-20T03:14:44;11.75;;;10.45;;
82248;SDS011;71851;49.092;18.918;2023-08-20T03:17:44;13.05;;;10.13;;
82248;SDS011;71851;49.092;18.918;2023-08-20T03:20:45;13.15;;;10.85;;
82248;SDS011;71851;49.092;18.918;2023-08-20T03:23:45;11.50;;;10.30;;
82248;SDS011;71851;49.092;18.918;2023-08-20T03:26:46;11.90;;;9.90;;
82248;SDS011;71851;49.092;18.918;2023-08-20T03:29:48;11.57;;;9.82;;
82248;SDS011;71851;49.092;18.918;2023-08-20T03:32:48;11.38;;;10.23;;
82248;SDS011;71851;49.092;18.918;2023-08-20T03:35:49;11.75;;;10.25;;
82248;SDS011;71851;49.092;18.918;2023-08-20T03:38:50;11.52;;;10.30;;
82248;SDS011;71851;49.092;18.918;2023-08-20T03:41:51;12.00;;;10.18;;
82248;SDS011;71851;49.092;18.918;2023-08-20T03:44:52;12.30;;;10.30;;
82248;SDS011;71851;49.092;18.918;2023-08-20T03:47:53;11.63;;;10.40;;
82248;SDS011;71851;49.092;18.918;2023-08-20T03:50:56;11.70;;;10.50;;
82248;SDS011;71851;49.092;18.918;2023-08-20T03:53:57;12.48;;;11.02;;
82248;SDS011;71851;49.092;18.918;2023-08-20T03:56:57;11.02;;;9.93;;
82248;SDS011;71851;49.092;18.918;2023-08-20T03:59:57;10.90;;;9.82;;
82248;SDS011;71851;49.092;18.918;2023-08-20T04:02:58;10.70;;;9.70;;
82248;SDS011;71851;49.092;18.918;2023-08-20T04:05:59;10.63;;;9.57;;
82248;SDS011;71851;49.092;18.918;2023-08-20T04:09:00;10.52;;;9.52;;
82248;SDS011;71851;49.092;18.918;2023-08-20T04:12:00;11.88;;;10.68;;
82248;SDS011;71851;49.092;18.918;2023-08-20T04:15:01;12.35;;;11.05;;
82248;SDS011;71851;49.092;18.918;2023-08-20T04:18:01;12.45;;;10.15;;
82248;SDS011;71851;49.092;18.918;2023-08-20T04:21:03;12.30;;;10.05;;
82248;SDS011;71851;49.092;18.918;2023-08-20T04:24:04;10.23;;;8.57;;
82248;SDS011;71851;49.092;18.918;2023-08-20T04:27:04;10.77;;;9.70;;
82248;SDS011;71851;49.092;18.918;2023-08-20T04:30:06;9.27;;;8.38;;
82248;SDS011;71851;49.092;18.918;2023-08-20T04:33:07;10.63;;;9.52;;
82248;SDS011;71851;49.092;18.918;2023-08-20T04:36:08;11.65;;;10.13;;
82248;SDS011;71851;49.092;18.918;2023-08-20T04:39:08;12.55;;;10.55;;
82248;SDS011;71851;49.092;18.918;2023-08-20T04:42:12;13.45;;;11.68;;
82248;SDS011;71851;49.092;18.918;2023-08-20T04:45:13;13.30;;;11.18;;
82248;SDS011;71851;49.092;18.918;2023-08-20T04:48:13;13.23;;;10.90;;
82248;SDS011;71851;49.092;18.918;2023-08-20T04:51:14;12.63;;;11.30;;
82248;SDS011;71851;49.092;18.918;2023-08-20T04:54:15;15.05;;;12.02;;
82248;SDS011;71851;49.092;18.918;2023-08-20T04:57:15;14.30;;;12.80;;
82248;SDS011;71851;49.092;18.918;2023-08-20T05:00:16;12.93;;;11.70;;
82248;SDS011;71851;49.092;18.918;2023-08-20T05:03:21;12.45;;;11.23;;
82248;SDS011;71851;49.092;18.918;2023-08-20T05:06:22;13.10;;;11.10;;
82248;SDS011;71851;49.092;18.918;2023-08-20T05:09:23;12.27;;;10.82;;
82248;SDS011;71851;49.092;18.918;2023-08-20T05:12:23;12.18;;;11.07;;
82248;SDS011;71851;49.092;18.918;2023-08-20T05:15:24;12.25;;;11.05;;
82248;SDS011;71851;49.092;18.918;2023-08-20T05:18:25;12.93;;;11.65;;
82248;SDS011;71851;49.092;18.918;2023-08-20T05:21:28;14.95;;;12.50;;
82248;SDS011;71851;49.092;18.918;2023-08-20T05:24:29;12.38;;;10.93;;
82248;SDS011;71851;49.092;18.918;2023-08-20T05:27:30;15.10;;;12.00;;
82248;SDS011;71851;49.092;18.918;2023-08-20T05:30:31;13.00;;;11.60;;
82248;SDS011;71851;49.092;18.918;2023-08-20T05:33:32;12.88;;;11.55;;
82248;SDS011;71851;49.092;18.918;2023-08-20T05:36:33;13.80;;;12.40;;
82248;SDS011;71851;49.092;18.918;2023-08-20T05:39:51;13.23;;;11.60;;
82248;SDS011;71851;49.092;18.918;2023-08-20T05:42:53;14.70;;;12.82;;
82248;SDS011;71851;49.092;18.918;2023-08-20T05:45:54;13.07;;;11.63;;
82248;SDS011;71851;49.092;18.918;2023-08-20T05:48:56;12.23;;;11.02;;
82248;SDS011;71851;49.092;18.918;2023-08-20T05:51:57;12.55;;;11.30;;
82248;SDS011;71851;49.092;18.918;2023-08-20T05:54:58;11.52;;;10.43;;
82248;SDS011;71851;49.092;18.918;2023-08-20T05:58:01;11.50;;;10.50;;
82248;SDS011;71851;49.092;18.918;2023-08-20T06:01:02;11.13;;;10.02;;
82248;SDS011;71851;49.092;18.918;2023-08-20T06:04:04;11.30;;;10.40;;
82248;SDS011;71851;49.092;18.918;2023-08-20T06:07:05;10.50;;;9.60;;
82248;SDS011;71851;49.092;18.918;2023-08-20T06:10:06;10.82;;;10.02;;
82248;SDS011;71851;49.092;18.918;2023-08-20T06:13:07;10.07;;;9.18;;
82248;SDS011;71851;49.092;18.918;2023-08-20T06:16:07;9.63;;;8.82;;
82248;SDS011;71851;49.092;18.918;2023-08-20T06:19:08;10.57;;;9.68;;
82248;SDS011;71851;49.092;18.918;2023-08-20T06:22:08;9.80;;;9.00;;
82248;SDS011;71851;49.092;18.918;2023-08-20T06:25:09;10.30;;;9.50;;
82248;SDS011;71851;49.092;18.918;2023-08-20T06:28:11;9.98;;;9.05;;
82248;SDS011;71851;49.092;18.918;2023-08-20T06:31:12;9.18;;;8.48;;
82248;SDS011;71851;49.092;18.918;2023-08-20T06:34:12;10.27;;;9.48;;
82248;SDS011;71851;49.092;18.918;2023-08-20T06:40:13;11.07;;;10.27;;
82248;SDS011;71851;49.092;18.918;2023-08-20T06:43:16;11.73;;;10.77;;
82248;SDS011;71851;49.092;18.918;2023-08-20T06:49:17;10.47;;;9.43;;
82248;SDS011;71851;49.092;18.918;2023-08-20T06:55:18;10.23;;;9.27;;
82248;SDS011;71851;49.092;18.918;2023-08-20T06:58:20;9.48;;;8.55;;
82248;SDS011;71851;49.092;18.918;2023-08-20T07:01:23;10.18;;;9.38;;
82248;SDS011;71851;49.092;18.918;2023-08-20T07:04:24;10.77;;;9.88;;
82248;SDS011;71851;49.092;18.918;2023-08-20T07:07:24;10.73;;;10.02;;
82248;SDS011;71851;49.092;18.918;2023-08-20T07:10:25;11.48;;;10.57;;
82248;SDS011;71851;49.092;18.918;2023-08-20T07:13:25;10.85;;;9.48;;
82248;SDS011;71851;49.092;18.918;2023-08-20T07:16:26;11.10;;;10.27;;
82248;SDS011;71851;49.092;18.918;2023-08-20T07:19:26;10.38;;;9.57;;
82248;SDS011;71851;49.092;18.918;2023-08-20T07:22:27;10.38;;;9.55;;
82248;SDS011;71851;49.092;18.918;2023-08-20T07:25:27;10.25;;;9.43;;
82248;SDS011;71851;49.092;18.918;2023-08-20T07:28:27;10.75;;;9.85;;
82248;SDS011;71851;49.092;18.918;2023-08-20T07:31:48;12.93;;;11.82;;
82248;SDS011;71851;49.092;18.918;2023-08-20T07:34:48;11.18;;;10.27;;
82248;SDS011;71851;49.092;18.918;2023-08-20T07:37:49;11.02;;;10.18;;
82248;SDS011;71851;49.092;18.918;2023-08-20T07:40:49;12.07;;;11.18;;
82248;SDS011;71851;49.092;18.918;2023-08-20T07:43:49;11.00;;;10.23;;
82248;SDS011;71851;49.092;18.918;2023-08-20T07:46:50;11.05;;;10.15;;
82248;SDS011;71851;49.092;18.918;2023-08-20T07:49:50;10.77;;;9.88;;
82248;SDS011;71851;49.092;18.918;2023-08-20T07:52:51;10.73;;;9.85;;
82248;SDS011;71851;49.092;18.918;2023-08-20T07:55:51;11.45;;;10.65;;
82248;SDS011;71851;49.092;18.918;2023-08-20T07:58:52;11.10;;;10.10;;
82248;SDS011;71851;49.092;18.918;2023-08-20T08:01:52;11.88;;;10.77;;
82248;SDS011;71851;49.092;18.918;2023-08-20T08:04:53;11.35;;;10.35;;
82248;SDS011;71851;49.092;18.918;2023-08-20T08:07:53;10.02;;;9.23;;
82248;SDS011;71851;49.092;18.918;2023-08-20T08:10:54;10.30;;;9.60;;
82248;SDS011;71851;49.092;18.918;2023-08-20T08:13:54;10.23;;;9.45;;
82248;SDS011;71851;49.092;18.918;2023-08-20T08:16:55;11.02;;;10.32;;
82248;SDS011;71851;49.092;18.918;2023-08-20T08:19:55;10.93;;;10.13;;
82248;SDS011;71851;49.092;18.918;2023-08-20T08:22:56;11.02;;;10.32;;
82248;SDS011;71851;49.092;18.918;2023-08-20T08:25:57;10.70;;;9.85;;
82248;SDS011;71851;49.092;18.918;2023-08-20T08:28:57;10.35;;;9.65;;
82248;SDS011;71851;49.092;18.918;2023-08-20T08:31:58;10.93;;;10.13;;
82248;SDS011;71851;49.092;18.918;2023-08-20T08:35:01;12.77;;;11.75;;
82248;SDS011;71851;49.092;18.918;2023-08-20T08:38:04;10.77;;;9.98;;
82248;SDS011;71851;49.092;18.918;2023-08-20T08:41:05;10.50;;;9.77;;
82248;SDS011;71851;49.092;18.918;2023-08-20T08:44:11;11.05;;;10.35;;
82248;SDS011;71851;49.092;18.918;2023-08-20T08:47:12;10.88;;;10.02;;
82248;SDS011;71851;49.092;18.918;2023-08-20T08:50:12;10.98;;;10.25;;
82248;SDS011;71851;49.092;18.918;2023-08-20T08:53:13;9.90;;;9.18;;
82248;SDS011;71851;49.092;18.918;2023-08-20T08:56:14;10.13;;;9.32;;
82248;SDS011;71851;49.092;18.918;2023-08-20T08:59:15;10.23;;;9.30;;
82248;SDS011;71851;49.092;18.918;2023-08-20T09:02:16;9.80;;;9.00;;
82248;SDS011;71851;49.092;18.918;2023-08-20T09:05:18;10.57;;;9.40;;
82248;SDS011;71851;49.092;18.918;2023-08-20T09:08:22;10.43;;;9.73;;
82248;SDS011;71851;49.092;18.918;2023-08-20T09:11:33;11.55;;;10.48;;
82248;SDS011;71851;49.092;18.918;2023-08-20T09:14:35;9.98;;;9.15;;
82248;SDS011;71851;49.092;18.918;2023-08-20T09:17:36;10.15;;;9.45;;
82248;SDS011;71851;49.092;18.918;2023-08-20T09:20:36;10.80;;;9.98;;
82248;SDS011;71851;49.092;18.918;2023-08-20T09:23:37;10.57;;;9.90;;
82248;SDS011;71851;49.092;18.918;2023-08-20T09:26:45;10.68;;;9.75;;
82248;SDS011;71851;49.092;18.918;2023-08-20T09:29:53;10.75;;;9.95;;
82248;SDS011;71851;49.092;18.918;2023-08-20T09:33:04;11.02;;;10.23;;
82248;SDS011;71851;49.092;18.918;2023-08-20T09:36:07;9.23;;;8.63;;
82248;SDS011;71851;49.092;18.918;2023-08-20T09:39:08;11.32;;;10.48;;
82248;SDS011;71851;49.092;18.918;2023-08-20T09:42:09;9.00;;;8.50;;
82248;SDS011;71851;49.092;18.918;2023-08-20T09:45:10;9.07;;;8.43;;
82248;SDS011;71851;49.092;18.918;2023-08-20T09:48:11;9.90;;;9.07;;
82248;SDS011;71851;49.092;18.918;2023-08-20T09:51:18;9.43;;;8.65;;
82248;SDS011;71851;49.092;18.918;2023-08-20T09:54:28;9.10;;;8.50;;
82248;SDS011;71851;49.092;18.918;2023-08-20T09:57:39;9.15;;;8.55;;
82248;SDS011;71851;49.092;18.918;2023-08-20T10:00:40;8.52;;;7.72;;
82248;SDS011;71851;49.092;18.918;2023-08-20T10:03:41;9.23;;;8.40;;
82248;SDS011;71851;49.092;18.918;2023-08-20T10:06:43;8.10;;;7.57;;
82248;SDS011;71851;49.092;18.918;2023-08-20T10:09:44;8.85;;;8.00;;
82248;SDS011;71851;49.092;18.918;2023-08-20T10:12:46;7.45;;;6.80;;
82248;SDS011;71851;49.092;18.918;2023-08-20T10:15:48;8.30;;;7.70;;
82248;SDS011;71851;49.092;18.918;2023-08-20T10:18:50;9.40;;;8.65;;
82248;SDS011;71851;49.092;18.918;2023-08-20T10:21:56;7.90;;;7.30;;
82248;SDS011;71851;49.092;18.918;2023-08-20T10:28:20;8.27;;;7.72;;
82248;SDS011;71851;49.092;18.918;2023-08-20T10:31:25;8.30;;;7.70;;
82248;SDS011;71851;49.092;18.918;2023-08-20T10:34:32;7.65;;;7.05;;
82248;SDS011;71851;49.092;18.918;2023-08-20T10:37:35;7.35;;;6.70;;
82248;SDS011;71851;49.092;18.918;2023-08-20T10:40:49;8.10;;;7.60;;
82248;SDS011;71851;49.092;18.918;2023-08-20T10:43:59;7.28;;;6.85;;
82248;SDS011;71851;49.092;18.918;2023-08-20T10:47:00;7.28;;;6.65;;
82248;SDS011;71851;49.092;18.918;2023-08-20T10:53:11;6.88;;;6.43;;
82248;SDS011;71851;49.092;18.918;2023-08-20T10:56:12;6.90;;;6.25;;
82248;SDS011;71851;49.092;18.918;2023-08-20T10:59:15;7.18;;;6.68;;
82248;SDS011;71851;49.092;18.918;2023-08-20T11:02:16;7.25;;;6.57;;
82248;SDS011;71851;49.092;18.918;2023-08-20T11:05:17;8.00;;;7.50;;
82248;SDS011;71851;49.092;18.918;2023-08-20T11:08:20;7.25;;;6.70;;
82248;SDS011;71851;49.092;18.918;2023-08-20T11:11:21;7.93;;;7.32;;
82248;SDS011;71851;49.092;18.918;2023-08-20T11:14:23;6.80;;;6.30;;
82248;SDS011;71851;49.092;18.918;2023-08-20T11:17:24;6.85;;;6.25;;
82248;SDS011;71851;49.092;18.918;2023-08-20T11:20:24;6.57;;;5.97;;
82248;SDS011;71851;49.092;18.918;2023-08-20T11:23:25;6.63;;;6.13;;
82248;SDS011;71851;49.092;18.918;2023-08-20T11:26:25;6.18;;;5.47;;
82248;SDS011;71851;49.092;18.918;2023-08-20T11:29:26;6.40;;;5.90;;
82248;SDS011;71851;49.092;18.918;2023-08-20T11:32:26;6.05;;;5.65;;
82248;SDS011;71851;49.092;18.918;2023-08-20T11:35:27;6.07;;;5.30;;
82248;SDS011;71851;49.092;18.918;2023-08-20T11:38:28;6.00;;;5.55;;
82248;SDS011;71851;49.092;18.918;2023-08-20T11:41:30;6.40;;;5.60;;
82248;SDS011;71851;49.092;18.918;2023-08-20T11:44:41;5.65;;;5.25;;
82248;SDS011;71851;49.092;18.918;2023-08-20T11:47:55;5.97;;;5.57;;
82248;SDS011;71851;49.092;18.918;2023-08-20T11:50:56;5.45;;;5.03;;
82248;SDS011;71851;49.092;18.918;2023-08-20T11:54:17;6.57;;;6.00;;
82248;SDS011;71851;49.092;18.918;2023-08-20T11:57:18;6.18;;;5.68;;
82248;SDS011;71851;49.092;18.918;2023-08-20T12:00:26;5.63;;;5.22;;
82248;SDS011;71851;49.092;18.918;2023-08-20T12:03:29;6.22;;;5.72;;
82248;SDS011;71851;49.092;18.918;2023-08-20T12:06:31;5.80;;;5.30;;
82248;SDS011;71851;49.092;18.918;2023-08-20T12:09:32;6.43;;;5.78;;
82248;SDS011;71851;49.092;18.918;2023-08-20T12:12:34;6.47;;;5.43;;
82248;SDS011;71851;49.092;18.918;2023-08-20T12:15:37;7.28;;;6.78;;
82248;SDS011;71851;49.092;18.918;2023-08-20T12:18:38;7.20;;;6.50;;
82248;SDS011;71851;49.092;18.918;2023-08-20T12:21:39;6.93;;;6.28;;
82248;SDS011;71851;49.092;18.918;2023-08-20T12:24:41;6.07;;;5.47;;
82248;SDS011;71851;49.092;18.918;2023-08-20T12:27:42;6.72;;;6.05;;
82248;SDS011;71851;49.092;18.918;2023-08-20T12:30:44;7.30;;;6.57;;
82248;SDS011;71851;49.092;18.918;2023-08-20T12:33:46;6.15;;;5.65;;
82248;SDS011;71851;49.092;18.918;2023-08-20T12:37:00;6.35;;;5.82;;
82248;SDS011;71851;49.092;18.918;2023-08-20T12:40:01;6.80;;;6.18;;
82248;SDS011;71851;49.092;18.918;2023-08-20T12:43:01;6.03;;;5.55;;
82248;SDS011;71851;49.092;18.918;2023-08-20T12:46:03;6.70;;;5.97;;
82248;SDS011;71851;49.092;18.918;2023-08-20T12:49:03;6.72;;;6.22;;
82248;SDS011;71851;49.092;18.918;2023-08-20T12:52:04;6.82;;;6.22;;
82248;SDS011;71851;49.092;18.918;2023-08-20T12:55:08;7.13;;;6.53;;
82248;SDS011;71851;49.092;18.918;2023-08-20T12:58:09;6.95;;;6.35;;
82248;SDS011;71851;49.092;18.918;2023-08-20T13:01:10;6.60;;;6.10;;
82248;SDS011;71851;49.092;18.918;2023-08-20T13:04:12;7.20;;;6.60;;
82248;SDS011;71851;49.092;18.918;2023-08-20T13:07:15;7.50;;;6.85;;
82248;SDS011;71851;49.092;18.918;2023-08-20T13:10:16;7.60;;;7.00;;
82248;SDS011;71851;49.092;18.918;2023-08-20T13:13:17;7.30;;;6.65;;
82248;SDS011;71851;49.092;18.918;2023-08-20T13:16:24;7.68;;;6.97;;
82248;SDS011;71851;49.092;18.918;2023-08-20T13:19:24;7.80;;;7.10;;
82248;SDS011;71851;49.092;18.918;2023-08-20T13:22:25;7.88;;;7.18;;
82248;SDS011;71851;49.092;18.918;2023-08-20T13:25:25;7.18;;;6.57;;
82248;SDS011;71851;49.092;18.918;2023-08-20T13:28:26;7.53;;;6.93;;
82248;SDS011;71851;49.092;18.918;2023-08-20T13:31:27;8.75;;;8.00;;
82248;SDS011;71851;49.092;18.918;2023-08-20T13:34:27;8.88;;;7.95;;
82248;SDS011;71851;49.092;18.918;2023-08-20T13:37:28;9.30;;;8.40;;
82248;SDS011;71851;49.092;18.918;2023-08-20T13:40:29;8.15;;;7.45;;
82248;SDS011;71851;49.092;18.918;2023-08-20T13:43:29;8.75;;;7.95;;
82248;SDS011;71851;49.092;18.918;2023-08-20T13:46:30;7.82;;;7.15;;
82248;SDS011;71851;49.092;18.918;2023-08-20T13:49:31;8.98;;;8.20;;
82248;SDS011;71851;49.092;18.918;2023-08-20T13:52:31;7.63;;;7.03;;
82248;SDS011;71851;49.092;18.918;2023-08-20T13:55:32;8.23;;;7.55;;
82248;SDS011;71851;49.092;18.918;2023-08-20T13:58:32;8.50;;;7.80;;
82248;SDS011;71851;49.092;18.918;2023-08-20T14:01:33;8.70;;;7.80;;
82248;SDS011;71851;49.092;18.918;2023-08-20T14:04:33;8.50;;;7.70;;
82248;SDS011;71851;49.092;18.918;2023-08-20T14:07:34;8.43;;;7.72;;
82248;SDS011;71851;49.092;18.918;2023-08-20T14:10:34;7.28;;;6.68;;
82248;SDS011;71851;49.092;18.918;2023-08-20T14:16:35;8.07;;;7.18;;
82248;SDS011;71851;49.092;18.918;2023-08-20T14:22:36;7.43;;;6.80;;
82248;SDS011;71851;49.092;18.918;2023-08-20T14:25:37;7.60;;;7.00;;
82248;SDS011;71851;49.092;18.918;2023-08-20T14:28:40;7.80;;;7.00;;
82248;SDS011;71851;49.092;18.918;2023-08-20T14:31:43;8.95;;;8.02;;
82248;SDS011;71851;49.092;18.918;2023-08-20T14:37:44;8.23;;;7.47;;
82248;SDS011;71851;49.092;18.918;2023-08-20T14:43:45;7.35;;;6.75;;
82248;SDS011;71851;49.092;18.918;2023-08-20T14:49:46;7.65;;;7.05;;
82248;SDS011;71851;49.092;18.918;2023-08-20T14:55:51;8.68;;;7.97;;
82248;SDS011;71851;49.092;18.918;2023-08-20T14:58:52;7.38;;;6.68;;
82248;SDS011;71851;49.092;18.918;2023-08-20T15:04:53;7.10;;;6.50;;
82248;SDS011;71851;49.092;18.918;2023-08-20T15:07:53;8.93;;;6.78;;
82248;SDS011;71851;49.092;18.918;2023-08-20T15:10:56;7.88;;;7.05;;
82248;SDS011;71851;49.092;18.918;2023-08-20T15:14:04;8.68;;;6.97;;
82248;SDS011;71851;49.092;18.918;2023-08-20T15:17:05;9.35;;;8.52;;
82248;SDS011;71851;49.092;18.918;2023-08-20T15:20:05;8.45;;;7.65;;
82248;SDS011;71851;49.092;18.918;2023-08-20T15:23:10;8.07;;;7.28;;
82248;SDS011;71851;49.092;18.918;2023-08-20T15:26:10;7.72;;;6.90;;
82248;SDS011;71851;49.092;18.918;2023-08-20T15:29:11;7.57;;;6.82;;
82248;SDS011;71851;49.092;18.918;2023-08-20T15:32:13;7.30;;;6.60;;
82248;SDS011;71851;49.092;18.918;2023-08-20T15:35:14;7.13;;;6.43;;
82248;SDS011;71851;49.092;18.918;2023-08-20T15:38:15;8.10;;;7.50;;
82248;SDS011;71851;49.092;18.918;2023-08-20T15:41:15;7.78;;;6.85;;
82248;SDS011;71851;49.092;18.918;2023-08-20T15:44:16;7.68;;;6.93;;
82248;SDS011;71851;49.092;18.918;2023-08-20T15:47:16;7.25;;;6.55;;
82248;SDS011;71851;49.092;18.918;2023-08-20T15:50:17;7.10;;;6.50;;
82248;SDS011;71851;49.092;18.918;2023-08-20T15:53:17;7.07;;;6.38;;
82248;SDS011;71851;49.092;18.918;2023-08-20T15:59:18;7.15;;;6.45;;
82248;SDS011;71851;49.092;18.918;2023-08-20T16:02:19;8.45;;;7.00;;
82248;SDS011;71851;49.092;18.918;2023-08-20T16:05:20;8.52;;;7.32;;
82248;SDS011;71851;49.092;18.918;2023-08-20T16:08:20;8.05;;;7.25;;
82248;SDS011;71851;49.092;18.918;2023-08-20T16:11:21;9.63;;;7.07;;
82248;SDS011;71851;49.092;18.918;2023-08-20T16:14:21;7.45;;;6.85;;
82248;SDS011;71851;49.092;18.918;2023-08-20T16:17:23;7.63;;;6.93;;
82248;SDS011;71851;49.092;18.918;2023-08-20T16:20:23;7.43;;;6.72;;
82248;SDS011;71851;49.092;18.918;2023-08-20T16:23:24;7.68;;;6.95;;
82248;SDS011;71851;49.092;18.918;2023-08-20T16:26:24;7.18;;;6.55;;
82248;SDS011;71851;49.092;18.918;2023-08-20T16:29:25;9.10;;;7.43;;
82248;SDS011;71851;49.092;18.918;2023-08-20T16:32:27;8.02;;;7.22;;
82248;SDS011;71851;49.092;18.918;2023-08-20T16:35:28;7.95;;;7.25;;
82248;SDS011;71851;49.092;18.918;2023-08-20T16:38:29;9.38;;;7.53;;
82248;SDS011;71851;49.092;18.918;2023-08-20T16:41:30;8.00;;;7.28;;
82248;SDS011;71851;49.092;18.918;2023-08-20T16:44:30;7.90;;;7.22;;
82248;SDS011;71851;49.092;18.918;2023-08-20T16:47:31;8.50;;;7.45;;
82248;SDS011;71851;49.092;18.918;2023-08-20T16:50:31;8.52;;;7.63;;
82248;SDS011;71851;49.092;18.918;2023-08-20T16:53:32;9.55;;;8.68;;
82248;SDS011;71851;49.092;18.918;2023-08-20T16:56:33;8.75;;;7.95;;
82248;SDS011;71851;49.092;18.918;2023-08-20T16:59:38;11.57;;;10.35;;
82248;SDS011;71851;49.092;18.918;2023-08-20T17:02:39;9.52;;;8.57;;
82248;SDS011;71851;49.092;18.918;2023-08-20T17:05:39;8.50;;;7.63;;
82248;SDS011;71851;49.092;18.918;2023-08-20T17:08:40;9.32;;;8.43;;
82248;SDS011;71851;49.092;18.918;2023-08-20T17:11:40;8.80;;;7.63;;
82248;SDS011;71851;49.092;18.918;2023-08-20T17:14:41;9.73;;;8.85;;
82248;SDS011;71851;49.092;18.918;2023-08-20T17:17:41;9.45;;;8.45;;
82248;SDS011;71851;49.092;18.918;2023-08-20T17:20:42;8.65;;;7.88;;
82248;SDS011;71851;49.092;18.918;2023-08-20T17:23:42;8.95;;;7.45;;
82248;SDS011;71851;49.092;18.918;2023-08-20T17:26:43;10.63;;;8.15;;
82248;SDS011;71851;49.092;18.918;2023-08-20T17:29:43;9.00;;;7.70;;
82248;SDS011;71851;49.092;18.918;2023-08-20T17:32:47;13.00;;;9.07;;
82248;SDS011;71851;49.092;18.918;2023-08-20T17:35:47;9.68;;;8.77;;
82248;SDS011;71851;49.092;18.918;2023-08-20T17:38:48;10.27;;;8.63;;
82248;SDS011;71851;49.092;18.918;2023-08-20T17:41:48;8.73;;;7.93;;
82248;SDS011;71851;49.092;18.918;2023-08-20T17:44:48;10.13;;;7.65;;
82248;SDS011;71851;49.092;18.918;2023-08-20T17:47:49;9.98;;;8.27;;
82248;SDS011;71851;49.092;18.918;2023-08-20T17:50:49;10.48;;;8.75;;
82248;SDS011;71851;49.092;18.918;2023-08-20T17:53:50;10.57;;;9.18;;
82248;SDS011;71851;49.092;18.918;2023-08-20T17:56:50;9.27;;;8.48;;
82248;SDS011;71851;49.092;18.918;2023-08-20T17:59:51;8.90;;;8.10;;
82248;SDS011;71851;49.092;18.918;2023-08-20T18:02:51;18.85;;;10.77;;
82248;SDS011;71851;49.092;18.918;2023-08-20T18:05:52;9.57;;;8.68;;
82248;SDS011;71851;49.092;18.918;2023-08-20T18:08:52;10.63;;;8.07;;
82248;SDS011;71851;49.092;18.918;2023-08-20T18:11:53;9.65;;;8.75;;
82248;SDS011;71851;49.092;18.918;2023-08-20T18:14:53;9.60;;;8.70;;
82248;SDS011;71851;49.092;18.918;2023-08-20T18:17:54;10.18;;;9.13;;
82248;SDS011;71851;49.092;18.918;2023-08-20T18:20:55;10.38;;;9.15;;
82248;SDS011;71851;49.092;18.918;2023-08-20T18:26:56;10.05;;;9.05;;
82248;SDS011;71851;49.092;18.918;2023-08-20T18:29:57;13.23;;;9.40;;
82248;SDS011;71851;49.092;18.918;2023-08-20T18:32:57;11.57;;;10.15;;
82248;SDS011;71851;49.092;18.918;2023-08-20T18:36:00;11.73;;;10.52;;
82248;SDS011;71851;49.092;18.918;2023-08-20T18:39:00;11.77;;;9.85;;